Weather Data

Pearl Creek Farm: 8878 N Farm Road 75, Walnut Grove MO 65770

<== Previous Day (Thursday 04 Sep 2014) | Next Day (Saturday 06 Sep 2014) ==>

Summary Precipitation Data For Friday 05 September 2014

ElementValueUnits
Precipitation0"
Notes(none)
SourcePearl Creek Farm

Summary Temperature Data For Friday 05 September 2014

ElementValueUnits
High Temperature93 oF
Low Temperature72 oF
Average Temperature81 oF
High Humidity91 %
Low Humidity56 %
Average Humidity75 %
SourcePearl Creek Farm

Detail Temperature Data For Friday 05 September 2014

Date / TimeTemp (F)RH (%)Dew Pt (F)Report Date / TimeSource
2014-09-05 00:00:00 78 82 72.1 2014-11-02 13:41:02 Pearl Creek Farm
2014-09-05 00:30:00 77 84 71.8 2014-11-02 13:41:02 Pearl Creek Farm
2014-09-05 01:00:00 77 85 72.1 2014-11-02 13:41:02 Pearl Creek Farm
2014-09-05 01:30:00 77 85 72.1 2014-11-02 13:41:02 Pearl Creek Farm
2014-09-05 02:00:00 76 86 71.3 2014-11-02 13:41:02 Pearl Creek Farm
2014-09-05 02:30:00 76 87 71.7 2014-11-02 13:41:02 Pearl Creek Farm
2014-09-05 03:00:00 76 87 71.7 2014-11-02 13:41:02 Pearl Creek Farm
2014-09-05 03:30:00 75 87 70.9 2014-11-02 13:41:02 Pearl Creek Farm
2014-09-05 04:00:00 74 87 69.7 2014-11-02 13:41:02 Pearl Creek Farm
2014-09-05 04:30:00 74 88 70.0 2014-11-02 13:41:02 Pearl Creek Farm
2014-09-05 05:00:00 74 88 70.2 2014-11-02 13:41:02 Pearl Creek Farm
2014-09-05 05:30:00 73 88 69.2 2014-11-02 13:41:02 Pearl Creek Farm
2014-09-05 06:00:00 73 89 69.6 2014-11-02 13:41:02 Pearl Creek Farm
2014-09-05 06:30:00 73 89 69.4 2014-11-02 13:41:02 Pearl Creek Farm
2014-09-05 07:00:00 72 90 68.9 2014-11-02 13:41:02 Pearl Creek Farm
2014-09-05 07:30:00 72 90 68.9 2014-11-02 13:41:02 Pearl Creek Farm
2014-09-05 08:00:00 73 91 70.1 2014-11-02 13:41:02 Pearl Creek Farm
2014-09-05 08:30:00 75 89 71.5 2014-11-02 13:41:02 Pearl Creek Farm
2014-09-05 09:00:00 77 87 72.7 2014-11-02 13:41:02 Pearl Creek Farm
2014-09-05 09:30:00 80 81 73.6 2014-11-02 13:41:02 Pearl Creek Farm
2014-09-05 10:00:00 82 78 74.3 2014-11-02 13:41:02 Pearl Creek Farm
2014-09-05 10:30:00 84 74 74.8 2014-11-02 13:41:02 Pearl Creek Farm
2014-09-05 11:00:00 85 72 74.9 2014-11-02 13:41:02 Pearl Creek Farm
2014-09-05 11:30:00 86 69 74.4 2014-11-02 13:41:02 Pearl Creek Farm
2014-09-05 12:00:00 88 66 75.2 2014-11-02 13:41:02 Pearl Creek Farm
2014-09-05 12:30:00 89 67 76.4 2014-11-02 13:41:02 Pearl Creek Farm
2014-09-05 13:00:00 90 62 75.0 2014-11-02 13:41:02 Pearl Creek Farm
2014-09-05 13:30:00 91 59 74.7 2014-11-02 13:41:02 Pearl Creek Farm
2014-09-05 14:00:00 92 60 75.9 2014-11-02 13:41:02 Pearl Creek Farm
2014-09-05 14:30:00 93 58 75.8 2014-11-02 13:41:02 Pearl Creek Farm
2014-09-05 15:00:00 93 58 76.0 2014-11-02 13:41:02 Pearl Creek Farm
2014-09-05 15:30:00 92 57 74.6 2014-11-02 13:41:02 Pearl Creek Farm
2014-09-05 16:00:00 92 56 74.0 2014-11-02 13:41:02 Pearl Creek Farm
2014-09-05 16:30:00 91 56 72.8 2014-11-02 13:41:02 Pearl Creek Farm
2014-09-05 17:00:00 91 57 73.4 2014-11-02 13:41:02 Pearl Creek Farm
2014-09-05 17:30:00 90 57 72.4 2014-11-02 13:41:02 Pearl Creek Farm
2014-09-05 18:00:00 90 59 73.5 2014-11-02 13:41:02 Pearl Creek Farm
2014-09-05 18:30:00 89 61 73.8 2014-11-02 13:41:02 Pearl Creek Farm
2014-09-05 19:00:00 88 65 74.7 2014-11-02 13:41:02 Pearl Creek Farm
2014-09-05 19:30:00 85 65 71.7 2014-11-02 13:41:02 Pearl Creek Farm
2014-09-05 20:00:00 81 69 69.6 2014-11-02 13:41:02 Pearl Creek Farm
2014-09-05 20:30:00 79 71 68.8 2014-11-02 13:41:02 Pearl Creek Farm
2014-09-05 21:00:00 77 75 68.3 2014-11-02 13:41:02 Pearl Creek Farm
2014-09-05 21:30:00 75 78 67.5 2014-11-02 13:41:02 Pearl Creek Farm
2014-09-05 22:00:00 74 81 67.6 2014-11-02 13:41:02 Pearl Creek Farm
2014-09-05 22:30:00 73 82 67.2 2014-11-02 13:41:02 Pearl Creek Farm
2014-09-05 23:00:00 73 82 67.0 2014-11-02 13:41:02 Pearl Creek Farm
2014-09-05 23:30:00 73 82 67.0 2014-11-02 13:41:02 Pearl Creek Farm

A total of 48 rows are displayed.